createdAt,value
2022-12-13T00:00:56.703Z,64.07
2022-12-13T00:03:23.245Z,63.42
2022-12-13T00:05:49.759Z,63.37
2022-12-13T00:08:16.766Z,63.39
2022-12-13T00:10:43.228Z,63.40
2022-12-13T00:13:09.664Z,63.61
2022-12-13T00:15:36.085Z,64.04
2022-12-13T00:18:02.502Z,64.02
2022-12-13T00:20:28.933Z,64.12
2022-12-13T00:22:56.104Z,64.32
2022-12-13T00:25:22.691Z,64.14
2022-12-13T00:27:49.148Z,64.31
2022-12-13T00:30:15.613Z,63.89
2022-12-13T00:32:42.076Z,63.94
2022-12-13T00:35:08.672Z,63.76
2022-12-13T00:37:35.165Z,63.77
2022-12-13T00:40:01.586Z,63.60
2022-12-13T00:42:28.006Z,63.35
2022-12-13T00:44:54.476Z,63.86
2022-12-13T00:47:22.304Z,63.64
2022-12-13T00:49:48.921Z,63.69
2022-12-13T00:52:15.494Z,63.99
2022-12-13T00:54:41.913Z,64.18
2022-12-13T00:57:08.327Z,64.17
2022-12-13T00:59:34.717Z,64.59
2022-12-13T01:02:01.111Z,64.52
2022-12-13T01:04:27.521Z,64.65
2022-12-13T01:06:55.073Z,64.93
2022-12-13T01:09:27.071Z,64.46
2022-12-13T01:11:57.273Z,64.13
2022-12-13T01:14:23.703Z,65.65
2022-12-13T01:16:50.189Z,65.15
2022-12-13T01:19:17.419Z,64.62
2022-12-13T01:21:43.796Z,63.91
2022-12-13T01:24:10.588Z,64.42
2022-12-13T01:26:37.020Z,64.93
2022-12-13T01:29:05.576Z,64.87
2022-12-13T01:31:32.893Z,65.76
2022-12-13T01:33:59.326Z,65.99
2022-12-13T01:36:27.283Z,65.89
2022-12-13T01:38:58.698Z,65.16
2022-12-13T01:41:27.710Z,64.48
2022-12-13T01:43:57.423Z,64.57
2022-12-13T01:46:23.999Z,64.06
2022-12-13T01:49:20.264Z,64.24
2022-12-13T01:51:54.598Z,64.01
2022-12-13T01:54:33.853Z,63.79
2022-12-13T01:57:04.088Z,64.46
2022-12-13T01:59:32.415Z,64.57
2022-12-13T02:02:00.591Z,64.60
2022-12-13T02:07:46.981Z,64.23
2022-12-13T02:10:13.420Z,63.85
2022-12-13T02:12:42.763Z,63.98
2022-12-13T02:15:19.844Z,64.41
2022-12-13T02:18:05.079Z,64.47
2022-12-13T02:20:49.913Z,65.19
2022-12-13T02:23:40.978Z,66.07
2022-12-13T02:26:25.947Z,65.36
2022-12-13T02:29:30.790Z,64.90
2022-12-13T02:32:00.721Z,64.27
2022-12-13T02:34:38.618Z,64.14
2022-12-13T02:37:38.190Z,63.86
2022-12-13T02:40:24.298Z,64.16
2022-12-13T02:43:08.502Z,63.82
2022-12-13T02:45:44.346Z,64.30
2022-12-13T02:48:13.380Z,64.18
2022-12-13T02:50:41.030Z,64.18
2022-12-13T02:53:09.647Z,65.08
2022-12-13T02:55:38.815Z,65.71
2022-12-13T02:58:05.267Z,65.83
2022-12-13T03:00:57.984Z,65.65
2022-12-13T03:03:42.709Z,66.27
2022-12-13T03:06:33.546Z,65.42
2022-12-13T03:09:24.394Z,64.82
2022-12-13T03:12:21.812Z,64.59
2022-12-13T03:15:23.525Z,64.65
2022-12-13T03:18:15.199Z,64.43
2022-12-13T03:20:57.922Z,64.15
2022-12-13T03:23:25.353Z,64.74
2022-12-13T03:25:58.399Z,64.81
2022-12-13T03:28:24.825Z,64.73
2022-12-13T03:30:51.314Z,64.09
2022-12-13T03:33:17.854Z,64.14
2022-12-13T03:35:45.711Z,64.44
2022-12-13T03:38:22.379Z,64.74
2022-12-13T03:40:52.016Z,64.84
2022-12-13T03:43:22.436Z,64.61
2022-12-13T03:45:53.253Z,64.63
2022-12-13T03:48:22.067Z,64.70
2022-12-13T03:50:50.328Z,64.63
2022-12-13T03:53:22.401Z,65.20
2022-12-13T03:56:00.974Z,64.98
2022-12-13T03:58:35.687Z,65.20
2022-12-13T04:01:04.674Z,65.35
2022-12-13T04:03:31.087Z,65.14
2022-12-13T04:05:57.576Z,64.85
2022-12-13T04:08:24.077Z,64.73
2022-12-13T04:10:50.505Z,64.97
2022-12-13T04:13:34.914Z,64.63
2022-12-13T04:16:02.777Z,65.18
2022-12-13T04:18:29.368Z,65.16
2022-12-13T04:20:57.305Z,65.30
2022-12-13T04:23:23.793Z,65.84
2022-12-13T04:25:50.244Z,65.27
2022-12-13T04:28:22.397Z,65.95
2022-12-13T04:30:52.717Z,66.82
2022-12-13T04:33:21.124Z,66.90
2022-12-13T04:35:48.413Z,65.87
2022-12-13T04:38:14.899Z,66.33
2022-12-13T04:40:41.289Z,66.84
2022-12-13T04:43:07.735Z,67.36
2022-12-13T04:45:34.210Z,67.60
2022-12-13T04:48:00.666Z,66.95
2022-12-13T04:50:27.093Z,66.80
2022-12-13T04:52:53.565Z,66.37
2022-12-13T04:55:19.992Z,66.35
2022-12-13T04:57:46.440Z,67.17
2022-12-13T05:00:13.451Z,67.06
2022-12-13T05:02:41.509Z,66.57
2022-12-13T05:05:10.004Z,66.59
2022-12-13T05:07:41.915Z,66.89
2022-12-13T05:10:10.300Z,66.46
2022-12-13T05:12:36.729Z,66.81
2022-12-13T05:15:03.651Z,66.71
2022-12-13T05:17:30.231Z,66.41
2022-12-13T05:19:56.704Z,66.26
2022-12-13T05:22:23.263Z,67.03
2022-12-13T05:24:49.792Z,67.38
2022-12-13T05:27:24.995Z,68.32
2022-12-13T05:30:04.237Z,67.40
2022-12-13T05:32:44.222Z,67.28
2022-12-13T05:35:23.176Z,66.55
2022-12-13T05:37:55.259Z,67.45
2022-12-13T05:40:26.754Z,67.05
2022-12-13T05:43:00.841Z,67.02
2022-12-13T05:45:29.481Z,67.41
2022-12-13T05:47:55.902Z,67.46
2022-12-13T05:50:22.360Z,66.69
2022-12-13T05:52:49.795Z,67.09
2022-12-13T05:55:16.888Z,67.59
2022-12-13T05:57:55.903Z,67.02
2022-12-13T06:00:30.896Z,67.11
2022-12-13T06:03:00.477Z,67.34
2022-12-13T06:05:28.175Z,68.26
2022-12-13T06:07:57.646Z,68.21
2022-12-13T06:10:24.589Z,67.99
2022-12-13T06:12:51.023Z,68.03
2022-12-13T06:15:22.465Z,67.88
2022-12-13T06:17:49.464Z,68.13
2022-12-13T06:20:23.744Z,67.59
2022-12-13T06:22:54.065Z,67.59
2022-12-13T06:25:31.042Z,67.71
2022-12-13T06:28:01.051Z,67.96
2022-12-13T06:30:29.229Z,68.11
2022-12-13T06:32:56.096Z,67.31
2022-12-13T06:35:28.678Z,67.26
2022-12-13T06:38:01.193Z,66.91
2022-12-13T06:40:32.494Z,66.39
2022-12-13T06:42:59.096Z,66.51
2022-12-13T06:45:26.098Z,66.79
2022-12-13T06:47:52.578Z,66.89
2022-12-13T06:50:19.366Z,67.76
2022-12-13T06:52:46.797Z,68.67
2022-12-13T06:55:13.630Z,68.35
2022-12-13T06:57:40.636Z,68.19
2022-12-13T07:00:08.338Z,68.19
2022-12-13T07:02:34.904Z,67.88
2022-12-13T07:05:01.364Z,68.16
2022-12-13T07:07:27.917Z,67.90
2022-12-13T07:09:54.602Z,67.46
2022-12-13T07:12:21.574Z,67.75
2022-12-13T07:14:48.198Z,68.32
2022-12-13T07:17:33.379Z,67.42
2022-12-13T07:20:07.780Z,67.08
2022-12-13T07:22:37.727Z,67.09
2022-12-13T07:25:06.784Z,67.07
2022-12-13T07:28:05.602Z,67.36
2022-12-13T07:30:40.911Z,67.69
2022-12-13T07:33:08.820Z,67.62
2022-12-13T07:35:37.408Z,67.54
2022-12-13T07:38:06.914Z,68.05
2022-12-13T07:40:34.955Z,68.68
2022-12-13T07:43:01.508Z,68.30
2022-12-13T07:45:28.055Z,68.48
2022-12-13T07:47:54.627Z,67.98
2022-12-13T07:50:24.101Z,68.04
2022-12-13T07:52:51.761Z,68.53
2022-12-13T07:55:18.230Z,68.23
2022-12-13T07:57:49.635Z,68.48
2022-12-13T08:00:16.427Z,68.75
2022-12-13T08:02:42.919Z,69.25
2022-12-13T08:05:26.639Z,68.92
2022-12-13T08:07:54.086Z,69.02
2022-12-13T08:10:20.965Z,68.97
2022-12-13T08:12:47.410Z,68.78
2022-12-13T08:15:14.417Z,68.83
2022-12-13T08:17:41.020Z,68.05
2022-12-13T08:20:07.978Z,68.12
2022-12-13T08:22:36.095Z,68.31
2022-12-13T08:25:03.472Z,68.47
2022-12-13T08:27:29.968Z,68.90
2022-12-13T08:29:56.633Z,68.41
2022-12-13T08:32:23.709Z,68.31
2022-12-13T08:34:50.322Z,68.35
2022-12-13T08:37:16.947Z,68.13
2022-12-13T08:39:44.590Z,68.34
2022-12-13T08:42:19.522Z,67.95
2022-12-13T08:44:51.975Z,67.76
2022-12-13T08:47:22.992Z,67.81
2022-12-13T08:50:04.139Z,67.93
2022-12-13T08:52:40.616Z,67.79
2022-12-13T08:55:13.437Z,68.05
2022-12-13T08:57:41.360Z,67.50
2022-12-13T09:00:11.538Z,67.44
2022-12-13T09:02:38.994Z,67.57
2022-12-13T09:05:07.849Z,67.54
2022-12-13T09:07:36.115Z,67.33
2022-12-13T09:10:25.348Z,66.66
2022-12-13T09:12:50.804Z,67.03
2022-12-13T09:15:21.826Z,66.90
2022-12-13T09:17:52.091Z,66.70
2022-12-13T09:20:28.760Z,66.84
2022-12-13T09:23:01.312Z,66.86
2022-12-13T09:25:36.574Z,66.07
2022-12-13T09:28:06.284Z,66.50
2022-12-13T09:30:32.760Z,66.56
2022-12-13T09:32:59.170Z,66.38
2022-12-13T09:35:45.628Z,66.59
2022-12-13T09:38:12.058Z,66.61
2022-12-13T09:40:39.902Z,66.32
2022-12-13T09:43:13.655Z,66.29
2022-12-13T09:45:50.458Z,65.82
2022-12-13T09:48:22.472Z,66.20
2022-12-13T09:50:58.575Z,66.28
2022-12-13T09:53:37.364Z,66.08
2022-12-13T09:56:10.773Z,65.79
2022-12-13T09:58:38.097Z,65.85
2022-12-13T10:01:05.384Z,65.50
2022-12-13T10:03:31.950Z,65.10
2022-12-13T10:05:59.378Z,65.32
2022-12-13T10:08:37.154Z,65.50
2022-12-13T10:11:04.035Z,65.98
2022-12-13T10:13:47.962Z,65.97
2022-12-13T10:16:36.645Z,66.17
2022-12-13T10:19:29.579Z,66.08
2022-12-13T10:22:01.523Z,65.59
2022-12-13T10:24:47.097Z,65.47
2022-12-13T10:27:17.881Z,66.17
2022-12-13T10:30:16.186Z,65.26
2022-12-13T10:32:55.846Z,65.58
2022-12-13T10:35:24.936Z,66.27
2022-12-13T10:37:52.302Z,65.10
2022-12-13T10:40:34.139Z,65.38
2022-12-13T10:43:17.229Z,64.94
2022-12-13T10:45:59.357Z,64.66
2022-12-13T10:48:39.399Z,63.31
2022-12-13T10:51:15.258Z,63.87
2022-12-13T10:53:47.503Z,64.11
2022-12-13T10:56:22.607Z,63.79
2022-12-13T10:59:15.046Z,62.79
2022-12-13T11:01:43.375Z,62.77
2022-12-13T11:04:26.948Z,62.44
2022-12-13T11:06:54.126Z,62.12
2022-12-13T11:09:28.785Z,62.26
2022-12-13T11:11:58.972Z,61.29
2022-12-13T11:14:40.285Z,61.17
2022-12-13T11:17:17.545Z,59.89
2022-12-13T11:19:52.131Z,60.72
2022-12-13T11:22:27.461Z,59.42
2022-12-13T11:25:09.352Z,59.19
2022-12-13T11:28:00.903Z,59.78
2022-12-13T11:30:35.858Z,59.34
2022-12-13T11:33:08.270Z,58.78
2022-12-13T11:35:49.857Z,58.85
2022-12-13T11:38:28.510Z,59.41
2022-12-13T11:41:14.307Z,58.30
2022-12-13T11:44:04.141Z,58.11
2022-12-13T11:46:50.380Z,57.97
2022-12-13T11:49:23.067Z,57.47
2022-12-13T11:52:06.043Z,57.24
2022-12-13T11:54:46.774Z,57.78
2022-12-13T11:57:26.163Z,57.14
2022-12-13T12:00:02.916Z,55.64
2022-12-13T12:02:35.789Z,55.61
2022-12-13T12:05:10.818Z,55.96
2022-12-13T12:08:12.634Z,55.54
2022-12-13T12:10:47.432Z,55.94
2022-12-13T12:13:50.499Z,56.09
2022-12-13T12:16:33.848Z,56.21
2022-12-13T12:19:01.424Z,56.16
2022-12-13T12:21:42.784Z,56.28
2022-12-13T12:24:21.486Z,55.92
2022-12-13T12:27:09.999Z,55.62
2022-12-13T12:30:03.163Z,54.83
2022-12-13T12:32:51.216Z,55.11
2022-12-13T12:35:48.181Z,54.21
2022-12-13T12:38:29.591Z,54.96
2022-12-13T12:41:16.768Z,54.00
2022-12-13T12:43:45.140Z,52.92
2022-12-13T12:46:25.847Z,52.77
2022-12-13T12:49:04.688Z,52.96
2022-12-13T12:51:53.099Z,52.56
2022-12-13T12:54:24.184Z,52.13
2022-12-13T12:57:23.418Z,50.65
2022-12-13T13:00:04.481Z,51.27
2022-12-13T13:02:50.125Z,51.99
2022-12-13T13:05:35.393Z,51.92
2022-12-13T13:08:31.030Z,52.57
2022-12-13T13:11:02.124Z,53.50
2022-12-13T13:13:35.394Z,52.67
2022-12-13T13:16:04.613Z,52.54
2022-12-13T13:18:55.573Z,53.04
2022-12-13T13:21:31.036Z,53.03
2022-12-13T13:24:09.554Z,53.00
2022-12-13T13:26:45.453Z,53.35
2022-12-13T13:29:27.437Z,53.08
2022-12-13T13:32:29.623Z,53.15
2022-12-13T13:35:36.062Z,53.96
2022-12-13T13:38:04.673Z,53.19
2022-12-13T13:40:39.062Z,53.33
2022-12-13T13:43:05.436Z,52.44
2022-12-13T13:45:50.025Z,54.59
2022-12-13T13:48:36.517Z,54.36
2022-12-13T13:51:21.699Z,53.62
2022-12-13T13:53:55.952Z,52.74
2022-12-13T13:57:01.057Z,52.10
2022-12-13T13:59:42.753Z,52.89
2022-12-13T14:02:40.448Z,53.16
2022-12-13T14:05:38.893Z,51.95
2022-12-13T14:08:20.929Z,53.15
2022-12-13T14:11:17.467Z,52.99
2022-12-13T14:14:21.759Z,54.27
2022-12-13T14:16:49.089Z,55.15
2022-12-13T14:19:49.677Z,53.83
2022-12-13T14:22:25.575Z,55.09
2022-12-13T14:25:32.051Z,55.91
2022-12-13T14:28:14.988Z,56.48
2022-12-13T14:30:43.472Z,56.92
2022-12-13T14:33:26.401Z,57.91
2022-12-13T14:36:00.187Z,57.50
2022-12-13T14:38:29.121Z,57.33
2022-12-13T14:41:03.246Z,58.25
2022-12-13T14:43:32.590Z,58.21
2022-12-13T14:46:05.215Z,58.70
2022-12-13T14:48:37.387Z,58.60
2022-12-13T14:51:04.779Z,58.95
2022-12-13T14:53:41.343Z,59.11
2022-12-13T14:56:11.011Z,59.69
2022-12-13T14:59:03.213Z,60.08
2022-12-13T15:01:35.172Z,60.67
2022-12-13T15:04:28.140Z,60.88
2022-12-13T15:06:58.414Z,60.69
2022-12-13T15:09:29.296Z,61.34
2022-12-13T15:12:14.616Z,61.55
2022-12-13T15:14:48.207Z,61.70
2022-12-13T15:17:26.745Z,62.22
2022-12-13T15:19:58.610Z,61.39
2022-12-13T15:22:34.969Z,62.84
2022-12-13T15:25:02.484Z,62.28
2022-12-13T15:27:32.885Z,62.58
2022-12-13T15:29:59.591Z,63.24
2022-12-13T15:32:26.048Z,62.90
2022-12-13T15:34:52.688Z,63.62
2022-12-13T15:37:28.524Z,63.20
2022-12-13T15:40:06.021Z,63.53
2022-12-13T15:42:36.893Z,64.00
2022-12-13T15:45:15.833Z,64.10
2022-12-13T15:47:47.974Z,64.48
2022-12-13T15:50:43.843Z,64.65
2022-12-13T15:53:24.923Z,65.13
2022-12-13T15:55:51.613Z,65.36
2022-12-13T15:58:37.382Z,66.19
2022-12-13T16:01:07.541Z,65.55
2022-12-13T16:03:45.195Z,66.40
2022-12-13T16:06:18.867Z,66.74
2022-12-13T16:08:51.032Z,66.99
2022-12-13T16:12:00.920Z,66.83
2022-12-13T16:14:30.424Z,66.37
2022-12-13T16:17:01.343Z,66.75
2022-12-13T16:19:35.367Z,67.09
2022-12-13T16:22:02.135Z,66.58
2022-12-13T16:24:35.885Z,66.82
2022-12-13T16:27:08.666Z,66.95
2022-12-13T16:29:36.083Z,66.90
2022-12-13T16:32:08.372Z,66.94
2022-12-13T16:34:36.091Z,66.66
2022-12-13T16:37:02.913Z,66.71
2022-12-13T16:39:35.160Z,66.96
2022-12-13T16:42:01.610Z,67.20
2022-12-13T16:44:37.486Z,67.21
2022-12-13T16:47:18.182Z,67.67
2022-12-13T16:49:46.951Z,67.29
2022-12-13T16:52:13.380Z,67.80
2022-12-13T16:54:39.829Z,68.30
2022-12-13T16:57:06.287Z,68.17
2022-12-13T16:59:32.772Z,67.70
2022-12-13T17:01:59.404Z,68.33
2022-12-13T17:04:27.389Z,68.38
2022-12-13T17:06:54.534Z,67.83
2022-12-13T17:09:21.245Z,68.32
2022-12-13T17:11:47.761Z,68.41
2022-12-13T17:14:14.601Z,67.94
2022-12-13T17:16:41.183Z,68.51
2022-12-13T17:19:09.049Z,68.16
2022-12-13T17:21:35.528Z,68.53
2022-12-13T17:24:03.040Z,68.10
2022-12-13T17:26:30.394Z,68.32
2022-12-13T17:28:56.859Z,67.72
2022-12-13T17:31:23.584Z,68.45
2022-12-13T17:33:50.130Z,67.79
2022-12-13T17:36:17.104Z,67.98
2022-12-13T17:38:48.354Z,68.49
2022-12-13T17:41:16.308Z,67.97
2022-12-13T17:43:43.796Z,67.82
2022-12-13T17:46:13.523Z,67.71
2022-12-13T17:48:41.629Z,68.04
2022-12-13T17:51:09.907Z,67.90
2022-12-13T17:53:38.327Z,68.18
2022-12-13T17:56:07.761Z,67.89
2022-12-13T17:58:34.847Z,67.80
2022-12-13T18:01:11.634Z,68.33
2022-12-13T18:03:38.377Z,67.83
2022-12-13T18:06:06.970Z,68.36
2022-12-13T18:08:35.777Z,68.17
2022-12-13T18:11:31.153Z,68.82
2022-12-13T18:13:49.900Z,68.52
2022-12-13T18:16:22.582Z,68.58
2022-12-13T18:18:55.083Z,68.88
2022-12-13T18:21:23.989Z,68.58
2022-12-13T18:23:55.046Z,69.07
2022-12-13T18:26:24.086Z,69.23
2022-12-13T18:28:50.825Z,69.08
2022-12-13T18:31:20.552Z,69.69
2022-12-13T18:33:48.167Z,68.98
2022-12-13T18:36:16.359Z,68.78
2022-12-13T18:38:43.558Z,68.99
2022-12-13T18:41:14.650Z,68.77
2022-12-13T18:43:42.641Z,68.76
2022-12-13T18:46:10.051Z,69.24
2022-12-13T18:48:36.697Z,70.22
2022-12-13T18:51:05.993Z,70.30
2022-12-13T18:53:33.595Z,70.25
2022-12-13T18:56:12.891Z,70.50
2022-12-13T18:58:44.725Z,70.18
2022-12-13T19:01:12.606Z,70.29
2022-12-13T19:03:39.876Z,70.41
2022-12-13T19:06:07.309Z,70.69
2022-12-13T19:08:36.401Z,70.39
2022-12-13T19:11:04.108Z,69.82
2022-12-13T19:13:32.344Z,69.22
2022-12-13T19:16:07.829Z,69.89
2022-12-13T19:18:34.969Z,69.76
2022-12-13T19:21:01.877Z,69.43
2022-12-13T19:23:29.314Z,69.87
2022-12-13T19:25:56.126Z,69.51
2022-12-13T19:28:23.029Z,69.69
2022-12-13T19:30:49.552Z,70.21
2022-12-13T19:33:17.281Z,70.17
2022-12-13T19:35:46.494Z,70.18
2022-12-13T19:38:13.581Z,70.61
2022-12-13T19:40:42.040Z,70.38
2022-12-13T19:43:08.601Z,70.95
2022-12-13T19:45:35.079Z,70.83
2022-12-13T19:48:01.577Z,71.05
2022-12-13T19:50:29.423Z,70.40
2022-12-13T19:52:56.369Z,70.96
2022-12-13T19:55:22.883Z,70.75
2022-12-13T19:57:49.403Z,70.76
2022-12-13T20:00:16.264Z,71.51
2022-12-13T20:02:43.082Z,71.45
2022-12-13T20:05:09.653Z,71.61
2022-12-13T20:07:36.488Z,71.17
2022-12-13T20:10:03.851Z,71.35
2022-12-13T20:12:34.138Z,71.65
2022-12-13T20:15:05.953Z,71.68
2022-12-13T20:17:32.804Z,71.08
2022-12-13T20:19:59.463Z,71.27
2022-12-13T20:22:26.001Z,71.95
2022-12-13T20:24:52.487Z,71.48
2022-12-13T20:27:19.924Z,71.28
2022-12-13T20:29:48.676Z,71.84
2022-12-13T20:32:15.252Z,72.19
2022-12-13T20:34:42.116Z,71.61
2022-12-13T20:37:08.726Z,72.44
2022-12-13T20:39:35.328Z,71.88
2022-12-13T20:42:01.788Z,71.83
2022-12-13T20:44:28.328Z,72.40
2022-12-13T20:46:54.996Z,72.00
2022-12-13T20:49:21.757Z,72.50
2022-12-13T20:51:48.353Z,72.69
2022-12-13T20:54:14.858Z,72.12
2022-12-13T20:56:41.441Z,72.84
2022-12-13T20:59:11.229Z,72.50
2022-12-13T21:01:38.701Z,72.40
2022-12-13T21:04:06.875Z,72.86
2022-12-13T21:06:40.539Z,73.76
2022-12-13T21:09:08.946Z,74.06
2022-12-13T21:11:38.710Z,74.13
2022-12-13T21:14:22.431Z,73.68
2022-12-13T21:16:51.876Z,74.39
2022-12-13T21:19:35.864Z,74.28
2022-12-13T21:22:05.781Z,74.73
2022-12-13T21:24:32.246Z,75.22
2022-12-13T21:26:59.847Z,75.36
2022-12-13T21:29:26.347Z,74.94
2022-12-13T21:31:54.625Z,75.36
2022-12-13T21:34:22.192Z,75.55
2022-12-13T21:36:50.818Z,75.84
2022-12-13T21:39:22.791Z,76.01
2022-12-13T21:41:49.691Z,75.47
2022-12-13T21:44:17.649Z,76.02
2022-12-13T21:49:30.736Z,75.97
2022-12-13T21:51:57.264Z,76.28
2022-12-13T21:54:23.821Z,76.47
2022-12-13T21:57:08.752Z,77.03
2022-12-13T21:59:35.307Z,77.27
2022-12-13T22:02:16.871Z,77.44
2022-12-13T22:04:51.728Z,77.22
2022-12-13T22:07:23.876Z,77.18
2022-12-13T22:09:51.403Z,77.52
2022-12-13T22:12:19.866Z,77.47
2022-12-13T22:14:46.809Z,77.38
2022-12-13T22:17:13.723Z,77.87
2022-12-13T22:19:40.375Z,78.06
2022-12-13T22:22:07.385Z,77.94
2022-12-13T22:24:33.851Z,78.61
2022-12-13T22:27:00.719Z,78.38
2022-12-13T22:29:27.660Z,77.75
2022-12-13T22:31:54.198Z,78.22
2022-12-13T22:34:20.681Z,77.15
2022-12-13T22:36:47.151Z,77.47
2022-12-13T22:39:19.069Z,77.28
2022-12-13T22:41:46.322Z,77.65
2022-12-13T22:44:16.450Z,77.64
2022-12-13T22:46:43.232Z,77.42
2022-12-13T22:49:10.863Z,77.27
2022-12-13T22:51:38.051Z,76.94
2022-12-13T22:54:05.161Z,76.66
2022-12-13T22:56:32.345Z,76.82
2022-12-13T22:59:03.548Z,77.48
2022-12-13T23:01:33.547Z,76.84
2022-12-13T23:04:00.790Z,77.06
2022-12-13T23:06:30.448Z,76.97
2022-12-13T23:08:59.864Z,77.04
2022-12-13T23:11:46.930Z,77.06
2022-12-13T23:14:17.410Z,77.72
2022-12-13T23:16:44.750Z,77.60
2022-12-13T23:19:41.023Z,77.17
2022-12-13T23:22:01.842Z,77.33
2022-12-13T23:24:28.384Z,77.58
2022-12-13T23:26:55.260Z,77.80
2022-12-13T23:29:21.839Z,77.10
2022-12-13T23:31:49.071Z,78.06
2022-12-13T23:34:16.684Z,78.56
2022-12-13T23:36:43.353Z,78.18
2022-12-13T23:39:11.246Z,78.05
2022-12-13T23:41:37.789Z,77.96
2022-12-13T23:44:04.656Z,77.99
2022-12-13T23:46:34.353Z,78.25
2022-12-13T23:49:02.159Z,78.44
2022-12-13T23:51:29.147Z,78.62
2022-12-13T23:53:55.687Z,78.32
2022-12-13T23:56:23.513Z,77.86
2022-12-13T23:58:50.841Z,78.16
